sensor_id;sensor_type;location;lat;lon;timestamp;P1;durP1;ratioP1;P2;durP2;ratioP2
76745;SDS011;65671;49.976;20.038;2024-01-10T00:01:59;52.00;;;23.73;;
76745;SDS011;65671;49.976;20.038;2024-01-10T00:04:24;53.05;;;27.55;;
76745;SDS011;65671;49.976;20.038;2024-01-10T00:06:50;82.25;;;25.98;;
76745;SDS011;65671;49.976;20.038;2024-01-10T00:09:15;68.90;;;27.10;;
76745;SDS011;65671;49.976;20.038;2024-01-10T00:11:41;52.15;;;23.75;;
76745;SDS011;65671;49.976;20.038;2024-01-10T00:14:06;38.17;;;23.58;;
76745;SDS011;65671;49.976;20.038;2024-01-10T00:16:32;38.35;;;20.73;;
76745;SDS011;65671;49.976;20.038;2024-01-10T00:18:57;42.00;;;18.58;;
76745;SDS011;65671;49.976;20.038;2024-01-10T00:21:23;32.97;;;22.48;;
76745;SDS011;65671;49.976;20.038;2024-01-10T00:23:48;50.80;;;25.95;;
76745;SDS011;65671;49.976;20.038;2024-01-10T00:26:14;48.75;;;20.55;;
76745;SDS011;65671;49.976;20.038;2024-01-10T00:28:40;41.15;;;21.25;;
76745;SDS011;65671;49.976;20.038;2024-01-10T00:31:06;47.30;;;23.85;;
76745;SDS011;65671;49.976;20.038;2024-01-10T00:33:31;51.58;;;24.38;;
76745;SDS011;65671;49.976;20.038;2024-01-10T00:35:57;47.47;;;21.48;;
76745;SDS011;65671;49.976;20.038;2024-01-10T00:38:22;42.17;;;21.30;;
76745;SDS011;65671;49.976;20.038;2024-01-10T00:40:47;44.42;;;23.00;;
76745;SDS011;65671;49.976;20.038;2024-01-10T00:43:13;52.08;;;21.30;;
76745;SDS011;65671;49.976;20.038;2024-01-10T00:45:38;53.83;;;22.55;;
76745;SDS011;65671;49.976;20.038;2024-01-10T00:48:04;50.72;;;22.83;;
76745;SDS011;65671;49.976;20.038;2024-01-10T00:50:29;49.55;;;25.58;;
76745;SDS011;65671;49.976;20.038;2024-01-10T00:52:55;52.40;;;21.45;;
76745;SDS011;65671;49.976;20.038;2024-01-10T00:55:20;43.10;;;22.35;;
76745;SDS011;65671;49.976;20.038;2024-01-10T00:57:46;60.67;;;26.00;;
76745;SDS011;65671;49.976;20.038;2024-01-10T01:00:11;58.55;;;28.45;;
76745;SDS011;65671;49.976;20.038;2024-01-10T01:02:38;74.53;;;28.25;;
76745;SDS011;65671;49.976;20.038;2024-01-10T01:05:06;48.25;;;25.55;;
76745;SDS011;65671;49.976;20.038;2024-01-10T01:07:32;72.53;;;28.80;;
76745;SDS011;65671;49.976;20.038;2024-01-10T01:09:58;50.92;;;24.80;;
76745;SDS011;65671;49.976;20.038;2024-01-10T01:12:23;69.30;;;26.27;;
76745;SDS011;65671;49.976;20.038;2024-01-10T01:14:49;57.25;;;25.95;;
76745;SDS011;65671;49.976;20.038;2024-01-10T01:17:14;65.68;;;25.20;;
76745;SDS011;65671;49.976;20.038;2024-01-10T01:19:40;47.35;;;21.92;;
76745;SDS011;65671;49.976;20.038;2024-01-10T01:22:05;54.50;;;28.83;;
76745;SDS011;65671;49.976;20.038;2024-01-10T01:24:31;54.03;;;25.80;;
76745;SDS011;65671;49.976;20.038;2024-01-10T01:26:56;55.15;;;21.48;;
76745;SDS011;65671;49.976;20.038;2024-01-10T01:29:21;65.53;;;26.23;;
76745;SDS011;65671;49.976;20.038;2024-01-10T01:31:47;51.45;;;22.58;;
76745;SDS011;65671;49.976;20.038;2024-01-10T01:34:13;43.28;;;21.63;;
76745;SDS011;65671;49.976;20.038;2024-01-10T01:36:38;47.53;;;22.25;;
76745;SDS011;65671;49.976;20.038;2024-01-10T01:39:04;58.88;;;28.60;;
76745;SDS011;65671;49.976;20.038;2024-01-10T01:41:30;50.80;;;25.73;;
76745;SDS011;65671;49.976;20.038;2024-01-10T01:43:55;59.80;;;26.17;;
76745;SDS011;65671;49.976;20.038;2024-01-10T01:46:21;50.03;;;23.95;;
76745;SDS011;65671;49.976;20.038;2024-01-10T01:48:50;48.03;;;24.08;;
76745;SDS011;65671;49.976;20.038;2024-01-10T01:51:17;41.88;;;24.83;;
76745;SDS011;65671;49.976;20.038;2024-01-10T01:53:46;56.97;;;23.95;;
76745;SDS011;65671;49.976;20.038;2024-01-10T01:56:14;57.13;;;25.13;;
76745;SDS011;65671;49.976;20.038;2024-01-10T01:58:41;45.08;;;20.63;;
76745;SDS011;65671;49.976;20.038;2024-01-10T02:01:09;48.40;;;21.17;;
76745;SDS011;65671;49.976;20.038;2024-01-10T02:03:37;42.90;;;23.35;;
76745;SDS011;65671;49.976;20.038;2024-01-10T02:06:03;61.22;;;29.67;;
76745;SDS011;65671;49.976;20.038;2024-01-10T02:08:30;40.35;;;22.20;;
76745;SDS011;65671;49.976;20.038;2024-01-10T02:11:00;50.28;;;28.13;;
76745;SDS011;65671;49.976;20.038;2024-01-10T02:13:33;48.20;;;28.90;;
76745;SDS011;65671;49.976;20.038;2024-01-10T02:15:59;51.38;;;24.45;;
76745;SDS011;65671;49.976;20.038;2024-01-10T02:18:25;58.28;;;27.77;;
76745;SDS011;65671;49.976;20.038;2024-01-10T02:20:51;53.72;;;22.73;;
76745;SDS011;65671;49.976;20.038;2024-01-10T02:23:19;52.05;;;23.38;;
76745;SDS011;65671;49.976;20.038;2024-01-10T02:25:47;71.70;;;27.63;;
76745;SDS011;65671;49.976;20.038;2024-01-10T02:28:13;48.90;;;22.77;;
76745;SDS011;65671;49.976;20.038;2024-01-10T02:30:38;47.25;;;24.75;;
76745;SDS011;65671;49.976;20.038;2024-01-10T02:33:04;58.97;;;26.75;;
76745;SDS011;65671;49.976;20.038;2024-01-10T02:35:29;42.72;;;24.40;;
76745;SDS011;65671;49.976;20.038;2024-01-10T02:37:58;43.75;;;22.50;;
76745;SDS011;65671;49.976;20.038;2024-01-10T02:42:59;52.30;;;27.17;;
76745;SDS011;65671;49.976;20.038;2024-01-10T02:45:24;51.90;;;25.73;;
76745;SDS011;65671;49.976;20.038;2024-01-10T02:47:50;39.42;;;19.02;;
76745;SDS011;65671;49.976;20.038;2024-01-10T02:50:15;58.72;;;24.92;;
76745;SDS011;65671;49.976;20.038;2024-01-10T02:52:41;61.50;;;25.83;;
76745;SDS011;65671;49.976;20.038;2024-01-10T02:55:07;52.78;;;24.45;;
76745;SDS011;65671;49.976;20.038;2024-01-10T02:57:32;47.90;;;26.08;;
76745;SDS011;65671;49.976;20.038;2024-01-10T02:59:58;57.00;;;25.73;;
76745;SDS011;65671;49.976;20.038;2024-01-10T03:02:23;69.57;;;26.25;;
76745;SDS011;65671;49.976;20.038;2024-01-10T03:04:49;56.05;;;27.50;;
76745;SDS011;65671;49.976;20.038;2024-01-10T03:07:15;66.20;;;26.63;;
76745;SDS011;65671;49.976;20.038;2024-01-10T03:09:40;59.45;;;25.60;;
76745;SDS011;65671;49.976;20.038;2024-01-10T03:12:06;48.58;;;19.58;;
76745;SDS011;65671;49.976;20.038;2024-01-10T03:14:32;50.85;;;22.67;;
76745;SDS011;65671;49.976;20.038;2024-01-10T03:16:59;48.65;;;25.73;;
76745;SDS011;65671;49.976;20.038;2024-01-10T03:19:27;45.15;;;23.77;;
76745;SDS011;65671;49.976;20.038;2024-01-10T03:21:53;54.50;;;24.95;;
76745;SDS011;65671;49.976;20.038;2024-01-10T03:24:19;56.65;;;31.92;;
76745;SDS011;65671;49.976;20.038;2024-01-10T03:26:44;52.95;;;23.60;;
76745;SDS011;65671;49.976;20.038;2024-01-10T03:29:10;47.88;;;25.20;;
76745;SDS011;65671;49.976;20.038;2024-01-10T03:31:35;49.42;;;27.08;;
76745;SDS011;65671;49.976;20.038;2024-01-10T03:34:01;45.10;;;22.45;;
76745;SDS011;65671;49.976;20.038;2024-01-10T03:36:26;45.00;;;21.13;;
76745;SDS011;65671;49.976;20.038;2024-01-10T03:38:52;52.72;;;22.15;;
76745;SDS011;65671;49.976;20.038;2024-01-10T03:41:18;51.53;;;23.00;;
76745;SDS011;65671;49.976;20.038;2024-01-10T03:43:47;48.42;;;24.17;;
76745;SDS011;65671;49.976;20.038;2024-01-10T03:46:13;49.78;;;23.45;;
76745;SDS011;65671;49.976;20.038;2024-01-10T03:48:38;53.83;;;23.75;;
76745;SDS011;65671;49.976;20.038;2024-01-10T03:51:13;53.90;;;25.75;;
76745;SDS011;65671;49.976;20.038;2024-01-10T03:53:39;54.55;;;26.38;;
76745;SDS011;65671;49.976;20.038;2024-01-10T03:56:05;31.80;;;19.08;;
76745;SDS011;65671;49.976;20.038;2024-01-10T03:58:31;45.38;;;22.30;;
76745;SDS011;65671;49.976;20.038;2024-01-10T04:00:59;51.97;;;21.90;;
76745;SDS011;65671;49.976;20.038;2024-01-10T04:03:32;55.33;;;21.90;;
76745;SDS011;65671;49.976;20.038;2024-01-10T04:06:01;57.85;;;25.30;;
76745;SDS011;65671;49.976;20.038;2024-01-10T04:08:27;49.95;;;22.48;;
76745;SDS011;65671;49.976;20.038;2024-01-10T04:10:52;51.45;;;27.17;;
76745;SDS011;65671;49.976;20.038;2024-01-10T04:13:18;46.20;;;23.90;;
76745;SDS011;65671;49.976;20.038;2024-01-10T04:15:43;39.78;;;24.20;;
76745;SDS011;65671;49.976;20.038;2024-01-10T04:18:09;53.20;;;26.67;;
76745;SDS011;65671;49.976;20.038;2024-01-10T04:20:34;55.67;;;28.60;;
76745;SDS011;65671;49.976;20.038;2024-01-10T04:23:00;57.67;;;23.85;;
76745;SDS011;65671;49.976;20.038;2024-01-10T04:25:25;54.95;;;24.42;;
76745;SDS011;65671;49.976;20.038;2024-01-10T04:27:50;39.63;;;23.27;;
76745;SDS011;65671;49.976;20.038;2024-01-10T04:30:16;45.05;;;25.10;;
76745;SDS011;65671;49.976;20.038;2024-01-10T04:32:41;52.97;;;27.48;;
76745;SDS011;65671;49.976;20.038;2024-01-10T04:35:07;34.72;;;21.33;;
76745;SDS011;65671;49.976;20.038;2024-01-10T04:37:32;56.22;;;24.52;;
76745;SDS011;65671;49.976;20.038;2024-01-10T04:39:58;42.15;;;21.90;;
76745;SDS011;65671;49.976;20.038;2024-01-10T04:42:23;56.58;;;23.30;;
76745;SDS011;65671;49.976;20.038;2024-01-10T04:44:49;42.97;;;25.77;;
76745;SDS011;65671;49.976;20.038;2024-01-10T04:47:15;55.03;;;24.50;;
76745;SDS011;65671;49.976;20.038;2024-01-10T04:49:40;49.42;;;21.20;;
76745;SDS011;65671;49.976;20.038;2024-01-10T04:52:06;43.38;;;21.30;;
76745;SDS011;65671;49.976;20.038;2024-01-10T04:54:31;40.63;;;22.98;;
76745;SDS011;65671;49.976;20.038;2024-01-10T04:56:57;35.63;;;18.90;;
76745;SDS011;65671;49.976;20.038;2024-01-10T04:59:22;36.65;;;18.52;;
76745;SDS011;65671;49.976;20.038;2024-01-10T05:01:47;52.55;;;21.15;;
76745;SDS011;65671;49.976;20.038;2024-01-10T05:04:13;34.88;;;18.95;;
76745;SDS011;65671;49.976;20.038;2024-01-10T05:06:39;48.25;;;23.42;;
76745;SDS011;65671;49.976;20.038;2024-01-10T05:09:04;45.20;;;22.10;;
76745;SDS011;65671;49.976;20.038;2024-01-10T05:11:34;38.70;;;18.30;;
76745;SDS011;65671;49.976;20.038;2024-01-10T05:14:03;57.33;;;22.20;;
76745;SDS011;65671;49.976;20.038;2024-01-10T05:16:29;34.40;;;18.48;;
76745;SDS011;65671;49.976;20.038;2024-01-10T05:18:54;39.53;;;20.67;;
76745;SDS011;65671;49.976;20.038;2024-01-10T05:21:20;34.10;;;17.50;;
76745;SDS011;65671;49.976;20.038;2024-01-10T05:23:46;36.83;;;17.98;;
76745;SDS011;65671;49.976;20.038;2024-01-10T05:26:11;41.38;;;19.75;;
76745;SDS011;65671;49.976;20.038;2024-01-10T05:28:37;44.40;;;18.65;;
76745;SDS011;65671;49.976;20.038;2024-01-10T05:31:03;43.13;;;17.48;;
76745;SDS011;65671;49.976;20.038;2024-01-10T05:33:32;38.63;;;22.33;;
76745;SDS011;65671;49.976;20.038;2024-01-10T05:35:58;36.10;;;20.05;;
76745;SDS011;65671;49.976;20.038;2024-01-10T05:38:23;40.78;;;17.73;;
76745;SDS011;65671;49.976;20.038;2024-01-10T05:40:49;43.80;;;21.65;;
76745;SDS011;65671;49.976;20.038;2024-01-10T05:43:14;48.20;;;18.98;;
76745;SDS011;65671;49.976;20.038;2024-01-10T05:45:40;29.95;;;17.60;;
76745;SDS011;65671;49.976;20.038;2024-01-10T05:48:06;32.72;;;16.95;;
76745;SDS011;65671;49.976;20.038;2024-01-10T05:50:31;32.47;;;15.02;;
76745;SDS011;65671;49.976;20.038;2024-01-10T05:52:57;30.30;;;16.40;;
76745;SDS011;65671;49.976;20.038;2024-01-10T05:55:22;35.30;;;16.85;;
76745;SDS011;65671;49.976;20.038;2024-01-10T05:57:48;37.80;;;17.05;;
76745;SDS011;65671;49.976;20.038;2024-01-10T06:00:14;31.50;;;14.70;;
76745;SDS011;65671;49.976;20.038;2024-01-10T06:02:41;39.72;;;15.32;;
76745;SDS011;65671;49.976;20.038;2024-01-10T06:05:10;30.98;;;17.27;;
76745;SDS011;65671;49.976;20.038;2024-01-10T06:07:39;35.28;;;19.17;;
76745;SDS011;65671;49.976;20.038;2024-01-10T06:10:08;44.30;;;21.50;;
76745;SDS011;65671;49.976;20.038;2024-01-10T06:12:35;35.30;;;18.90;;
76745;SDS011;65671;49.976;20.038;2024-01-10T06:15:02;53.60;;;23.58;;
76745;SDS011;65671;49.976;20.038;2024-01-10T06:17:28;38.90;;;20.52;;
76745;SDS011;65671;49.976;20.038;2024-01-10T06:19:55;41.47;;;20.25;;
76745;SDS011;65671;49.976;20.038;2024-01-10T06:22:20;41.80;;;20.33;;
76745;SDS011;65671;49.976;20.038;2024-01-10T06:24:50;50.65;;;22.50;;
76745;SDS011;65671;49.976;20.038;2024-01-10T06:27:15;48.45;;;22.40;;
76745;SDS011;65671;49.976;20.038;2024-01-10T06:29:43;39.97;;;20.10;;
76745;SDS011;65671;49.976;20.038;2024-01-10T06:32:09;60.05;;;23.83;;
76745;SDS011;65671;49.976;20.038;2024-01-10T06:34:39;51.63;;;22.38;;
76745;SDS011;65671;49.976;20.038;2024-01-10T06:37:08;57.10;;;25.08;;
76745;SDS011;65671;49.976;20.038;2024-01-10T06:39:33;209.35;;;102.38;;
76745;SDS011;65671;49.976;20.038;2024-01-10T06:41:59;55.97;;;23.95;;
76745;SDS011;65671;49.976;20.038;2024-01-10T06:44:25;55.53;;;21.77;;
76745;SDS011;65671;49.976;20.038;2024-01-10T06:46:53;57.50;;;24.95;;
76745;SDS011;65671;49.976;20.038;2024-01-10T06:49:20;51.17;;;21.88;;
76745;SDS011;65671;49.976;20.038;2024-01-10T06:51:46;48.35;;;21.45;;
76745;SDS011;65671;49.976;20.038;2024-01-10T06:54:11;41.67;;;23.05;;
76745;SDS011;65671;49.976;20.038;2024-01-10T06:56:37;39.97;;;18.60;;
76745;SDS011;65671;49.976;20.038;2024-01-10T06:59:05;44.60;;;22.58;;
76745;SDS011;65671;49.976;20.038;2024-01-10T07:01:30;43.38;;;22.30;;
76745;SDS011;65671;49.976;20.038;2024-01-10T07:03:56;62.33;;;26.05;;
76745;SDS011;65671;49.976;20.038;2024-01-10T07:06:21;47.50;;;24.67;;
76745;SDS011;65671;49.976;20.038;2024-01-10T07:08:48;49.10;;;20.50;;
76745;SDS011;65671;49.976;20.038;2024-01-10T07:11:15;53.15;;;22.80;;
76745;SDS011;65671;49.976;20.038;2024-01-10T07:13:41;34.50;;;15.63;;
76745;SDS011;65671;49.976;20.038;2024-01-10T07:16:08;42.80;;;22.13;;
76745;SDS011;65671;49.976;20.038;2024-01-10T07:18:33;49.67;;;22.73;;
76745;SDS011;65671;49.976;20.038;2024-01-10T07:20:59;50.95;;;21.08;;
76745;SDS011;65671;49.976;20.038;2024-01-10T07:23:25;49.90;;;19.40;;
76745;SDS011;65671;49.976;20.038;2024-01-10T07:25:51;47.97;;;22.70;;
76745;SDS011;65671;49.976;20.038;2024-01-10T07:28:16;30.27;;;16.38;;
76745;SDS011;65671;49.976;20.038;2024-01-10T07:30:42;48.33;;;18.58;;
76745;SDS011;65671;49.976;20.038;2024-01-10T07:33:09;33.00;;;18.48;;
76745;SDS011;65671;49.976;20.038;2024-01-10T07:35:35;54.50;;;22.13;;
76745;SDS011;65671;49.976;20.038;2024-01-10T07:38:01;57.42;;;20.60;;
76745;SDS011;65671;49.976;20.038;2024-01-10T07:40:26;44.33;;;21.77;;
76745;SDS011;65671;49.976;20.038;2024-01-10T07:42:52;47.25;;;23.77;;
76745;SDS011;65671;49.976;20.038;2024-01-10T07:45:17;50.55;;;23.48;;
76745;SDS011;65671;49.976;20.038;2024-01-10T07:47:43;52.03;;;23.17;;
76745;SDS011;65671;49.976;20.038;2024-01-10T07:50:09;72.05;;;29.70;;
76745;SDS011;65671;49.976;20.038;2024-01-10T07:52:37;54.38;;;22.50;;
76745;SDS011;65671;49.976;20.038;2024-01-10T07:55:06;64.22;;;26.73;;
76745;SDS011;65671;49.976;20.038;2024-01-10T07:57:33;59.58;;;24.90;;
76745;SDS011;65671;49.976;20.038;2024-01-10T08:00:01;57.80;;;24.90;;
76745;SDS011;65671;49.976;20.038;2024-01-10T08:02:29;46.05;;;22.23;;
76745;SDS011;65671;49.976;20.038;2024-01-10T08:04:59;46.63;;;23.65;;
76745;SDS011;65671;49.976;20.038;2024-01-10T08:09:50;53.03;;;26.47;;
76745;SDS011;65671;49.976;20.038;2024-01-10T08:12:16;58.33;;;28.95;;
76745;SDS011;65671;49.976;20.038;2024-01-10T08:14:43;66.43;;;32.83;;
76745;SDS011;65671;49.976;20.038;2024-01-10T08:17:11;68.90;;;33.95;;
76745;SDS011;65671;49.976;20.038;2024-01-10T08:19:36;49.97;;;24.45;;
76745;SDS011;65671;49.976;20.038;2024-01-10T08:22:02;56.60;;;26.17;;
76745;SDS011;65671;49.976;20.038;2024-01-10T08:24:28;45.55;;;22.85;;
76745;SDS011;65671;49.976;20.038;2024-01-10T08:26:54;75.80;;;30.90;;
76745;SDS011;65671;49.976;20.038;2024-01-10T08:29:19;56.20;;;27.42;;
76745;SDS011;65671;49.976;20.038;2024-01-10T08:31:45;70.47;;;31.70;;
76745;SDS011;65671;49.976;20.038;2024-01-10T08:34:11;84.63;;;37.88;;
76745;SDS011;65671;49.976;20.038;2024-01-10T08:36:37;106.90;;;42.92;;
76745;SDS011;65671;49.976;20.038;2024-01-10T08:39:03;75.28;;;38.03;;
76745;SDS011;65671;49.976;20.038;2024-01-10T08:41:29;72.57;;;33.97;;
76745;SDS011;65671;49.976;20.038;2024-01-10T08:43:55;84.45;;;41.80;;
76745;SDS011;65671;49.976;20.038;2024-01-10T08:46:20;116.45;;;43.95;;
76745;SDS011;65671;49.976;20.038;2024-01-10T08:48:46;106.47;;;46.80;;
76745;SDS011;65671;49.976;20.038;2024-01-10T08:51:12;88.82;;;42.10;;
76745;SDS011;65671;49.976;20.038;2024-01-10T08:53:41;75.13;;;37.03;;
76745;SDS011;65671;49.976;20.038;2024-01-10T08:56:07;89.13;;;42.05;;
76745;SDS011;65671;49.976;20.038;2024-01-10T08:58:33;86.75;;;41.58;;
76745;SDS011;65671;49.976;20.038;2024-01-10T09:00:58;72.50;;;35.10;;
76745;SDS011;65671;49.976;20.038;2024-01-10T09:03:24;77.65;;;35.13;;
76745;SDS011;65671;49.976;20.038;2024-01-10T09:05:49;98.68;;;37.42;;
76745;SDS011;65671;49.976;20.038;2024-01-10T09:08:14;101.25;;;45.33;;
76745;SDS011;65671;49.976;20.038;2024-01-10T09:10:40;77.05;;;37.83;;
76745;SDS011;65671;49.976;20.038;2024-01-10T09:13:06;90.93;;;40.58;;
76745;SDS011;65671;49.976;20.038;2024-01-10T09:15:32;98.97;;;42.83;;
76745;SDS011;65671;49.976;20.038;2024-01-10T09:17:57;98.20;;;42.92;;
76745;SDS011;65671;49.976;20.038;2024-01-10T09:20:26;97.55;;;43.15;;
76745;SDS011;65671;49.976;20.038;2024-01-10T09:22:52;92.80;;;43.75;;
76745;SDS011;65671;49.976;20.038;2024-01-10T09:25:17;90.20;;;39.85;;
76745;SDS011;65671;49.976;20.038;2024-01-10T09:27:43;102.97;;;43.15;;
76745;SDS011;65671;49.976;20.038;2024-01-10T09:30:12;104.25;;;48.35;;
76745;SDS011;65671;49.976;20.038;2024-01-10T09:32:38;101.78;;;40.13;;
76745;SDS011;65671;49.976;20.038;2024-01-10T09:35:04;100.00;;;45.17;;
76745;SDS011;65671;49.976;20.038;2024-01-10T09:37:30;103.80;;;49.97;;
76745;SDS011;65671;49.976;20.038;2024-01-10T09:39:55;109.70;;;49.30;;
76745;SDS011;65671;49.976;20.038;2024-01-10T09:42:21;108.40;;;45.85;;
76745;SDS011;65671;49.976;20.038;2024-01-10T09:44:50;93.03;;;45.75;;
76745;SDS011;65671;49.976;20.038;2024-01-10T09:47:16;99.25;;;44.40;;
76745;SDS011;65671;49.976;20.038;2024-01-10T09:49:45;123.65;;;45.03;;
76745;SDS011;65671;49.976;20.038;2024-01-10T09:52:11;116.53;;;47.67;;
76745;SDS011;65671;49.976;20.038;2024-01-10T09:57:11;82.72;;;38.83;;
76745;SDS011;65671;49.976;20.038;2024-01-10T09:59:37;112.78;;;51.92;;
76745;SDS011;65671;49.976;20.038;2024-01-10T10:02:03;135.57;;;53.05;;
76745;SDS011;65671;49.976;20.038;2024-01-10T10:04:29;132.23;;;56.58;;
76745;SDS011;65671;49.976;20.038;2024-01-10T10:06:59;134.13;;;57.05;;
76745;SDS011;65671;49.976;20.038;2024-01-10T10:09:26;120.28;;;57.47;;
76745;SDS011;65671;49.976;20.038;2024-01-10T10:11:55;134.30;;;52.90;;
76745;SDS011;65671;49.976;20.038;2024-01-10T10:14:23;131.15;;;54.42;;
76745;SDS011;65671;49.976;20.038;2024-01-10T10:16:51;124.82;;;53.28;;
76745;SDS011;65671;49.976;20.038;2024-01-10T10:19:23;129.75;;;56.38;;
76745;SDS011;65671;49.976;20.038;2024-01-10T10:21:49;118.22;;;52.85;;
76745;SDS011;65671;49.976;20.038;2024-01-10T10:24:15;128.60;;;58.97;;
76745;SDS011;65671;49.976;20.038;2024-01-10T10:26:41;112.75;;;54.83;;
76745;SDS011;65671;49.976;20.038;2024-01-10T10:29:07;126.03;;;54.83;;
76745;SDS011;65671;49.976;20.038;2024-01-10T10:31:34;121.97;;;52.33;;
76745;SDS011;65671;49.976;20.038;2024-01-10T10:34:00;122.30;;;53.13;;
76745;SDS011;65671;49.976;20.038;2024-01-10T10:36:32;127.93;;;54.38;;
76745;SDS011;65671;49.976;20.038;2024-01-10T10:38:59;134.32;;;55.22;;
76745;SDS011;65671;49.976;20.038;2024-01-10T10:41:29;113.97;;;50.40;;
76745;SDS011;65671;49.976;20.038;2024-01-10T10:43:56;109.65;;;52.67;;
76745;SDS011;65671;49.976;20.038;2024-01-10T10:46:26;131.38;;;54.63;;
76745;SDS011;65671;49.976;20.038;2024-01-10T10:48:52;128.45;;;56.90;;
76745;SDS011;65671;49.976;20.038;2024-01-10T10:51:42;125.82;;;58.20;;
76745;SDS011;65671;49.976;20.038;2024-01-10T10:54:07;128.48;;;51.33;;
76745;SDS011;65671;49.976;20.038;2024-01-10T10:56:34;129.30;;;56.05;;
76745;SDS011;65671;49.976;20.038;2024-01-10T10:59:02;127.18;;;53.15;;
76745;SDS011;65671;49.976;20.038;2024-01-10T11:01:29;114.82;;;48.28;;
76745;SDS011;65671;49.976;20.038;2024-01-10T11:03:56;118.45;;;52.42;;
76745;SDS011;65671;49.976;20.038;2024-01-10T11:06:23;130.45;;;53.15;;
76745;SDS011;65671;49.976;20.038;2024-01-10T11:08:53;134.35;;;55.72;;
76745;SDS011;65671;49.976;20.038;2024-01-10T11:16:57;125.47;;;53.63;;
76745;SDS011;65671;49.976;20.038;2024-01-10T11:25:18;125.72;;;56.33;;
76745;SDS011;65671;49.976;20.038;2024-01-10T11:27:44;126.53;;;54.38;;
76745;SDS011;65671;49.976;20.038;2024-01-10T11:30:12;130.70;;;55.17;;
76745;SDS011;65671;49.976;20.038;2024-01-10T11:32:38;128.77;;;56.00;;
76745;SDS011;65671;49.976;20.038;2024-01-10T11:35:19;121.78;;;55.00;;
76745;SDS011;65671;49.976;20.038;2024-01-10T11:37:45;138.40;;;62.05;;
76745;SDS011;65671;49.976;20.038;2024-01-10T11:40:14;135.15;;;60.13;;
76745;SDS011;65671;49.976;20.038;2024-01-10T11:42:44;124.93;;;55.53;;
76745;SDS011;65671;49.976;20.038;2024-01-10T11:45:56;149.82;;;60.08;;
76745;SDS011;65671;49.976;20.038;2024-01-10T11:47:59;131.40;;;62.90;;
76745;SDS011;65671;49.976;20.038;2024-01-10T11:50:24;135.77;;;59.40;;
76745;SDS011;65671;49.976;20.038;2024-01-10T11:52:54;146.55;;;62.70;;
76745;SDS011;65671;49.976;20.038;2024-01-10T11:55:46;133.52;;;61.15;;
76745;SDS011;65671;49.976;20.038;2024-01-10T11:58:12;130.80;;;59.60;;
76745;SDS011;65671;49.976;20.038;2024-01-10T12:00:38;127.00;;;60.13;;
76745;SDS011;65671;49.976;20.038;2024-01-10T12:03:04;143.05;;;63.45;;
76745;SDS011;65671;49.976;20.038;2024-01-10T12:05:30;154.85;;;66.60;;
76745;SDS011;65671;49.976;20.038;2024-01-10T12:07:55;148.32;;;65.30;;
76745;SDS011;65671;49.976;20.038;2024-01-10T12:10:21;137.63;;;61.88;;
76745;SDS011;65671;49.976;20.038;2024-01-10T12:12:50;135.30;;;61.60;;
76745;SDS011;65671;49.976;20.038;2024-01-10T12:15:16;138.98;;;59.42;;
76745;SDS011;65671;49.976;20.038;2024-01-10T12:17:42;145.90;;;61.08;;
76745;SDS011;65671;49.976;20.038;2024-01-10T12:20:07;148.35;;;64.25;;
76745;SDS011;65671;49.976;20.038;2024-01-10T12:22:33;134.35;;;59.35;;
76745;SDS011;65671;49.976;20.038;2024-01-10T12:25:04;143.98;;;62.63;;
76745;SDS011;65671;49.976;20.038;2024-01-10T12:27:29;119.25;;;54.17;;
76745;SDS011;65671;49.976;20.038;2024-01-10T12:29:55;131.45;;;59.63;;
76745;SDS011;65671;49.976;20.038;2024-01-10T12:32:21;117.80;;;51.53;;
76745;SDS011;65671;49.976;20.038;2024-01-10T12:34:54;112.72;;;52.42;;
76745;SDS011;65671;49.976;20.038;2024-01-10T12:37:26;121.90;;;54.15;;
76745;SDS011;65671;49.976;20.038;2024-01-10T12:39:51;110.97;;;53.05;;
76745;SDS011;65671;49.976;20.038;2024-01-10T12:42:17;132.02;;;57.92;;
76745;SDS011;65671;49.976;20.038;2024-01-10T12:44:45;125.25;;;58.10;;
76745;SDS011;65671;49.976;20.038;2024-01-10T12:47:22;113.53;;;49.13;;
76745;SDS011;65671;49.976;20.038;2024-01-10T12:49:49;113.32;;;49.70;;
76745;SDS011;65671;49.976;20.038;2024-01-10T12:52:15;118.45;;;51.08;;
76745;SDS011;65671;49.976;20.038;2024-01-10T12:54:40;131.27;;;53.50;;
76745;SDS011;65671;49.976;20.038;2024-01-10T12:57:07;119.90;;;52.72;;
76745;SDS011;65671;49.976;20.038;2024-01-10T12:59:33;116.43;;;52.35;;
76745;SDS011;65671;49.976;20.038;2024-01-10T13:02:01;115.93;;;50.38;;
76745;SDS011;65671;49.976;20.038;2024-01-10T13:04:27;108.82;;;48.45;;
76745;SDS011;65671;49.976;20.038;2024-01-10T13:06:52;107.82;;;48.65;;
76745;SDS011;65671;49.976;20.038;2024-01-10T13:09:20;121.43;;;50.65;;
76745;SDS011;65671;49.976;20.038;2024-01-10T13:11:46;102.03;;;44.95;;
76745;SDS011;65671;49.976;20.038;2024-01-10T13:14:12;89.25;;;39.15;;
76745;SDS011;65671;49.976;20.038;2024-01-10T13:16:37;90.68;;;40.88;;
76745;SDS011;65671;49.976;20.038;2024-01-10T13:19:03;89.20;;;43.28;;
76745;SDS011;65671;49.976;20.038;2024-01-10T13:21:28;98.43;;;40.40;;
76745;SDS011;65671;49.976;20.038;2024-01-10T13:23:54;92.95;;;38.28;;
76745;SDS011;65671;49.976;20.038;2024-01-10T13:26:20;96.85;;;40.17;;
76745;SDS011;65671;49.976;20.038;2024-01-10T13:28:45;108.32;;;45.38;;
76745;SDS011;65671;49.976;20.038;2024-01-10T13:31:11;113.32;;;47.28;;
76745;SDS011;65671;49.976;20.038;2024-01-10T13:33:36;110.65;;;48.97;;
76745;SDS011;65671;49.976;20.038;2024-01-10T13:38:29;109.63;;;43.72;;
76745;SDS011;65671;49.976;20.038;2024-01-10T13:40:55;94.85;;;45.03;;
76745;SDS011;65671;49.976;20.038;2024-01-10T13:43:21;103.63;;;45.17;;
76745;SDS011;65671;49.976;20.038;2024-01-10T13:45:46;109.47;;;45.08;;
76745;SDS011;65671;49.976;20.038;2024-01-10T13:48:12;93.03;;;44.03;;
76745;SDS011;65671;49.976;20.038;2024-01-10T13:50:37;102.95;;;44.25;;
76745;SDS011;65671;49.976;20.038;2024-01-10T13:53:03;98.60;;;48.42;;
76745;SDS011;65671;49.976;20.038;2024-01-10T13:55:32;91.07;;;45.40;;
76745;SDS011;65671;49.976;20.038;2024-01-10T13:57:58;95.95;;;42.35;;
76745;SDS011;65671;49.976;20.038;2024-01-10T14:00:23;93.82;;;43.20;;
76745;SDS011;65671;49.976;20.038;2024-01-10T14:02:49;91.03;;;40.75;;
76745;SDS011;65671;49.976;20.038;2024-01-10T14:05:15;99.55;;;43.25;;
76745;SDS011;65671;49.976;20.038;2024-01-10T14:07:40;77.80;;;38.65;;
76745;SDS011;65671;49.976;20.038;2024-01-10T14:10:09;82.22;;;37.33;;
76745;SDS011;65671;49.976;20.038;2024-01-10T14:12:36;83.65;;;39.05;;
76745;SDS011;65671;49.976;20.038;2024-01-10T14:15:02;78.65;;;35.20;;
76745;SDS011;65671;49.976;20.038;2024-01-10T14:17:28;80.22;;;35.47;;
76745;SDS011;65671;49.976;20.038;2024-01-10T14:19:54;84.03;;;35.63;;
76745;SDS011;65671;49.976;20.038;2024-01-10T14:22:19;72.95;;;31.63;;
76745;SDS011;65671;49.976;20.038;2024-01-10T14:24:45;74.32;;;31.10;;